Time;durP1;ratioP1;P1;durP2;ratioP2;P2;SDS_P1;SDS_P2;PMS_P1;PMS_P2;Temp;Humidity;BMP_temperature;BMP_pressure;BME280_temperature;BME280_humidity;BME280_pressure;Samples;Min_cycle;Max_cycle;Signal;HPM_P1;HPM_P2
2023/01/27 00:00:30;;;;;;;25.40;6.05;;;;;;;5.85;100.00;102635.75;10421381;28;20045;-69
2023/01/27 00:05:30;;;;;;;22.35;5.72;;;;;;;5.88;100.00;102622.91;10421376;28;20521;-69
2023/01/27 00:10:30;;;;;;;19.63;5.38;;;;;;;5.90;100.00;102606.63;10419527;28;20037;-69
2023/01/27 00:15:31;;;;;;;20.63;5.35;;;;;;;5.93;100.00;102609.09;10420410;28;20107;-69
2023/01/27 00:25:57;;;;;;;15.23;6.03;;;;;;;5.92;100.00;102607.38;10419583;28;20042;-69
2023/01/27 00:30:57;;;;;;;;;;;;;;;5.94;100.00;102597.41;10419407;28;20385;-69
2023/01/27 00:36:07;;;;;;;13.93;3.65;;;;;;;5.88;100.00;102597.84;10435386;28;19999;-69
2023/01/27 00:41:20;;;;;;;11.80;3.47;;;;;;;5.91;100.00;102608.38;10451138;28;20033;-69
2023/01/27 00:46:21;;;;;;;13.32;3.15;;;;;;;5.92;100.00;102597.47;10418930;28;20454;-69
2023/01/27 00:51:22;;;;;;;7.97;3.13;;;;;;;5.91;100.00;102601.16;10450167;28;20036;-69
2023/01/27 00:56:22;;;;;;;7.80;2.70;;;;;;;5.95;100.00;102591.03;10419206;28;20036;-69
2023/01/27 01:01:22;;;;;;;6.88;2.60;;;;;;;5.97;100.00;102607.91;10419019;28;20029;-69
2023/01/27 01:06:23;;;;;;;11.40;2.35;;;;;;;5.91;100.00;102597.63;10419611;28;20480;-69
2023/01/27 01:11:23;;;;;;;12.23;2.92;;;;;;;5.94;100.00;102606.31;10452597;28;20144;-70
2023/01/27 01:16:24;;;;;;;17.77;2.50;;;;;;;5.90;100.00;102598.56;10422544;28;20136;-69
2023/01/27 01:21:24;;;;;;;12.30;2.60;;;;;;;5.91;100.00;102597.63;10417642;28;20060;-70
2023/01/27 01:26:25;;;;;;;17.85;4.10;;;;;;;5.84;100.00;102605.31;10417948;28;20065;-69
2023/01/27 01:31:25;;;;;;;5.25;2.55;;;;;;;5.85;100.00;102607.03;10417096;28;20037;-69
2023/01/27 01:36:25;;;;;;;13.93;4.15;;;;;;;5.76;100.00;102605.06;10417551;28;20096;-69
2023/01/27 01:41:26;;;;;;;15.25;2.92;;;;;;;5.69;100.00;102612.78;10417108;28;20060;-69
2023/01/27 01:46:26;;;;;;;12.75;2.60;;;;;;;5.67;100.00;102614.72;10417204;28;20037;-69
2023/01/27 01:51:33;;;;;;;4.88;3.53;;;;;;;5.61;100.00;102623.28;10416856;28;20060;-69
2023/01/27 01:56:40;;;;;;;7.13;3.58;;;;;;;5.51;100.00;102635.75;10448383;28;20026;-69
2023/01/27 02:01:40;;;;;;;5.15;1.92;;;;;;;5.49;100.00;102605.47;10448028;28;20041;-69
2023/01/27 02:07:10;;;;;;;7.60;4.07;;;;;;;5.46;100.00;102628.06;10448424;28;20052;-69
2023/01/27 02:12:10;;;;;;;1.95;1.75;;;;;;;5.38;100.00;102635.00;10415397;28;20458;-69
2023/01/27 02:17:11;;;;;;;7.22;3.15;;;;;;;5.31;100.00;102643.56;10414205;28;20061;-69
2023/01/27 02:22:14;;;;;;;12.68;3.33;;;;;;;5.22;100.00;102636.22;10447384;28;20030;-69
2023/01/27 02:27:14;;;;;;;7.40;3.13;;;;;;;5.25;100.00;102643.19;10415835;28;20044;-69
2023/01/27 02:32:24;;;;;;;6.57;3.35;;;;;;;5.22;100.00;102636.22;10415118;28;20040;-69
2023/01/27 02:37:25;;;;;;;5.40;3.17;;;;;;;5.24;100.00;102633.41;10415723;28;20030;-69
2023/01/27 02:42:25;;;;;;;8.13;3.50;;;;;;;5.18;100.00;102624.00;10447753;28;20029;-69
2023/01/27 02:47:26;;;;;;;10.85;3.40;;;;;;;5.08;100.00;102639.13;10414872;28;20081;-69
2023/01/27 02:52:26;;;;;;;5.82;3.47;;;;;;;4.80;100.00;102645.75;10419378;28;20034;-69
2023/01/27 02:57:26;;;;;;;4.93;3.75;;;;;;;4.75;100.00;102645.25;10423128;28;20393;-69
2023/01/27 03:02:29;;;;;;;10.60;3.88;;;;;;;4.64;100.00;102660.34;10423711;28;20033;-69
2023/01/27 03:07:29;;;;;;;5.45;4.60;;;;;;;4.46;100.00;102661.69;10423320;28;20029;-69
2023/01/27 03:12:30;;;;;;;7.35;5.72;;;;;;;4.46;100.00;102672.44;10423266;28;20073;-69
2023/01/27 03:22:49;;;;;;;15.43;6.35;;;;;;;4.55;100.00;102665.53;10422389;28;20053;-69
2023/01/27 03:27:50;;;;;;;14.52;5.97;;;;;;;4.61;100.00;102675.81;10457146;28;20284;-69
2023/01/27 03:32:50;;;;;;;8.23;6.30;;;;;;;4.58;100.00;102684.09;10427450;28;20128;-69
2023/01/27 03:48:30;;;;;;;23.80;9.32;;;;;;;4.42;100.00;102684.38;10421699;28;20033;-69
2023/01/27 03:53:31;;;;;;;18.65;8.73;;;;;;;4.35;100.00;102686.66;10421978;28;20029;-69
2023/01/27 03:58:34;;;;;;;11.00;8.23;;;;;;;4.31;100.00;102693.22;10422489;28;20450;-70
2023/01/27 04:08:53;;;;;;;8.60;6.47;;;;;;;4.13;100.00;102705.28;10448209;28;20033;-70
2023/01/27 04:13:54;;;;;;;7.47;5.72;;;;;;;4.10;100.00;102711.72;10420523;28;20053;-69
2023/01/27 04:18:55;;;;;;;12.27;8.20;;;;;;;4.01;100.00;102723.09;10422228;28;20045;-69
2023/01/27 04:23:56;;;;;;;20.33;9.93;;;;;;;4.01;100.00;102732.97;10452823;28;20041;-69
2023/01/27 04:28:56;;;;;;;16.83;8.60;;;;;;;3.91;100.00;102733.63;10422675;28;20378;-69
2023/01/27 04:33:57;;;;;;;10.85;9.73;;;;;;;3.86;100.00;102730.44;10435392;28;20034;-69
2023/01/27 04:38:58;;;;;;;11.65;8.75;;;;;;;3.91;100.00;102733.63;10419700;28;20545;-69
2023/01/27 04:43:58;;;;;;;11.18;8.95;;;;;;;3.88;100.00;102733.84;10420184;28;20041;-69
2023/01/27 04:48:59;;;;;;;11.80;8.98;;;;;;;3.77;100.00;102731.06;10419909;28;20040;-69
2023/01/27 04:54:02;;;;;;;15.27;9.73;;;;;;;3.77;100.00;102740.94;10434939;28;20033;-69
2023/01/27 04:59:10;;;;;;;13.45;9.25;;;;;;;3.78;100.00;102745.31;10419514;28;20036;-69
2023/01/27 05:04:11;;;;;;;15.18;8.63;;;;;;;3.79;100.00;102753.25;10419359;28;20488;-69
2023/01/27 05:09:12;;;;;;;10.20;8.65;;;;;;;3.69;100.00;102757.53;10419098;28;20033;-69
2023/01/27 05:14:13;;;;;;;11.38;10.02;;;;;;;3.71;100.00;102752.94;10418431;28;20064;-69
2023/01/27 05:19:13;;;;;;;9.88;6.68;;;;;;;3.60;100.00;102766.19;10417510;28;20038;-69
2023/01/27 05:24:14;;;;;;;6.90;5.63;;;;;;;3.56;100.00;102780.78;10417229;28;20461;-69
2023/01/27 05:29:15;;;;;;;7.60;5.70;;;;;;;3.63;100.00;102761.50;10417813;28;20033;-69
2023/01/27 05:34:15;;;;;;;7.28;5.25;;;;;;;3.68;100.00;102763.88;10420464;28;20030;-69
2023/01/27 05:39:16;;;;;;;5.82;5.30;;;;;;;3.67;100.00;102760.34;10417882;28;20094;-69
2023/01/27 05:44:16;;;;;;;5.05;4.57;;;;;;;3.70;100.00;102751.19;10417697;28;20041;-69
2023/01/27 05:49:17;;;;;;;4.95;4.43;;;;;;;3.71;100.00;102763.66;10417307;28;20056;-69
2023/01/27 05:54:18;;;;;;;8.32;5.45;;;;;;;3.84;100.00;102777.91;10417295;28;20025;-69
2023/01/27 05:59:18;;;;;;;4.55;4.18;;;;;;;3.79;100.00;102768.47;10449079;28;20112;-69
2023/01/27 06:04:19;;;;;;;6.00;3.83;;;;;;;3.90;100.00;102769.44;10419077;28;20029;-69
2023/01/27 06:09:20;;;;;;;4.40;4.10;;;;;;;3.83;100.00;102778.88;10449962;28;20080;-69
2023/01/27 06:14:20;;;;;;;4.20;3.90;;;;;;;3.85;100.00;102786.78;10416366;28;20065;-69
2023/01/27 06:19:21;;;;;;;3.92;3.55;;;;;;;3.81;100.00;102772.75;10415765;28;20045;-69
2023/01/27 06:24:22;;;;;;;5.60;5.05;;;;;;;3.90;100.00;102784.66;10416058;28;20048;-69
2023/01/27 06:29:23;;;;;;;3.85;3.53;;;;;;;3.97;100.00;102802.88;10397882;28;20094;-69
2023/01/27 06:34:23;;;;;;;7.35;3.50;;;;;;;3.91;100.00;102807.81;10417043;28;20453;-69
2023/01/27 06:39:24;;;;;;;3.83;3.53;;;;;;;3.94;100.00;102800.41;10415267;28;20033;-69
2023/01/27 06:44:25;;;;;;;4.55;2.35;;;;;;;3.88;100.00;102808.03;10415746;28;20462;-69
2023/01/27 06:49:25;;;;;;;8.75;3.22;;;;;;;3.84;100.00;102817.25;10415121;28;20038;-69
2023/01/27 06:54:26;;;;;;;3.47;2.50;;;;;;;3.65;100.00;102812.31;10415408;28;20116;-69
2023/01/27 06:59:26;;;;;;;5.13;2.63;;;;;;;3.69;100.00;102811.13;10447515;28;20034;-69
2023/01/27 07:04:28;;;;;;;3.45;3.00;;;;;;;3.77;100.00;102810.59;10415443;28;20037;-69
2023/01/27 07:09:29;;;;;;;6.47;3.22;;;;;;;3.86;100.00;102810.81;10431182;28;20105;-69
2023/01/27 07:14:29;;;;;;;3.10;2.47;;;;;;;3.73;100.00;102824.22;10414989;28;20152;-69
2023/01/27 07:19:30;;;;;;;4.05;3.17;;;;;;;3.72;100.00;102817.13;10414993;28;20029;-69
2023/01/27 07:24:30;;;;;;;3.17;2.45;;;;;;;3.59;100.00;102818.94;10415041;28;20124;-69
2023/01/27 07:29:31;;;;;;;2.13;2.00;;;;;;;3.52;100.00;102825.69;10413629;28;20041;-69
2023/01/27 07:34:31;;;;;;;4.32;2.97;;;;;;;3.51;100.00;102834.69;10413617;28;20124;-69
2023/01/27 07:39:32;;;;;;;2.28;2.17;;;;;;;3.55;100.00;102856.75;10422438;28;20033;-69
2023/01/27 07:44:33;;;;;;;3.90;3.00;;;;;;;3.60;100.00;102857.28;10421247;28;20025;-69
2023/01/27 07:49:33;;;;;;;4.43;2.90;;;;;;;3.69;100.00;102856.66;10421451;28;20552;-69
2023/01/27 07:54:34;;;;;;;2.60;2.40;;;;;;;3.67;100.00;102856.78;10422461;28;20168;-69
2023/01/27 07:59:34;;;;;;;2.72;2.53;;;;;;;3.70;100.00;102863.72;10421754;28;20053;-69
2023/01/27 08:04:35;;;;;;;3.33;2.85;;;;;;;3.72;100.00;102867.19;10422715;28;20129;-69
2023/01/27 08:09:35;;;;;;;2.80;2.60;;;;;;;3.67;100.00;102880.00;10421994;28;20037;-69
2023/01/27 08:14:36;;;;;;;2.05;1.92;;;;;;;3.46;100.00;102885.88;10452733;28;20053;-69
2023/01/27 08:19:36;;;;;;;2.33;2.13;;;;;;;3.32;100.00;102885.94;10359990;28;20119;-69
2023/01/27 08:24:37;;;;;;;6.63;2.13;;;;;;;3.33;100.00;102887.66;10419064;28;20034;-69
2023/01/27 08:29:37;;;;;;;1.88;1.77;;;;;;;3.39;100.00;102895.28;10452848;28;20431;-69
2023/01/27 08:34:38;;;;;;;2.63;2.35;;;;;;;4.47;100.00;102891.47;10452034;28;20026;-69
2023/01/27 08:39:38;;;;;;;6.32;2.65;;;;;;;4.99;100.00;102884.16;10419435;28;20033;-69
2023/01/27 08:44:39;;;;;;;2.58;2.38;;;;;;;4.27;100.00;102883.94;10420619;28;20037;-69
2023/01/27 08:49:39;;;;;;;3.90;1.98;;;;;;;3.95;100.00;102887.03;10417750;28;20045;-69
2023/01/27 08:54:40;;;;;;;2.72;2.53;;;;;;;3.97;100.00;102879.75;10451647;28;20044;-69
2023/01/27 08:59:40;;;;;;;12.80;2.78;;;;;;;4.13;100.00;102895.66;10419529;28;20095;-69
2023/01/27 09:04:43;;;;;;;2.08;1.83;;;;;;;4.23;100.00;102894.03;10419917;28;20072;-69
2023/01/27 09:09:47;;;;;;;6.30;2.53;;;;;;;4.30;100.00;102889.94;10419506;28;20053;-69
2023/01/27 09:14:47;;;;;;;2.47;2.28;;;;;;;4.27;100.00;102897.34;10417557;28;20460;-69
2023/01/27 09:19:48;;;;;;;4.90;3.10;;;;;;;4.39;100.00;102910.75;10418535;28;20037;-69
2023/01/27 09:24:48;;;;;;;1.88;1.77;;;;;;;5.05;100.00;102902.50;10419004;28;20045;-69
2023/01/27 09:29:49;;;;;;;2.95;1.50;;;;;;;5.71;100.00;102895.78;10449643;28;20168;-69
2023/01/27 09:34:49;;;;;;;8.77;2.38;;;;;;;5.17;100.00;102915.03;10417511;28;20041;-69
2023/01/27 09:39:51;;;;;;;2.42;2.22;;;;;;;5.29;100.00;102911.44;10418553;28;20034;-69
2023/01/27 09:44:51;;;;;;;7.65;3.10;;;;;;;5.71;100.00;102913.69;10418213;28;20041;-69
2023/01/27 09:49:58;;;;;;;4.55;2.33;;;;;;;7.14;100.00;102908.72;10417300;28;20034;-69
2023/01/27 09:55:01;;;;;;;3.55;1.83;;;;;;;8.25;100.00;102897.59;10417248;28;20112;-69
2023/01/27 10:00:07;;;;;;;1.27;1.23;;;;;;;8.48;100.00;102898.31;10417119;28;20064;-69
2023/01/27 10:05:43;;;;;;;1.65;1.63;;;;;;;8.33;100.00;102893.25;10416513;28;20029;-69
2023/01/27 10:10:53;;;;;;;8.80;2.40;;;;;;;8.47;100.00;102892.06;10414024;28;20043;-70
2023/01/27 10:16:14;;;;;;;2.05;1.90;;;;;;;8.83;100.00;102895.16;10416265;28;20053;-69
2023/01/27 10:21:25;;;;;;;3.35;2.50;;;;;;;8.95;100.00;102902.19;10416783;28;20509;-69
2023/01/27 10:26:37;;;;;;;2.38;2.17;;;;;;;9.16;100.00;102906.66;10416005;28;20434;-69
2023/01/27 10:31:55;;;;;;;4.57;2.05;;;;;;;8.99;100.00;102898.22;10415445;28;20025;-69
2023/01/27 10:36:59;;;;;;;1.67;1.58;;;;;;;9.30;100.00;102890.88;10445644;28;20060;-70
2023/01/27 10:42:35;;;;;;;1.60;1.50;;;;;;;9.43;100.00;102904.13;10449639;28;20033;-70
2023/01/27 10:47:57;;;;;;;3.33;1.90;;;;;;;9.01;100.00;102901.63;10415677;28;20034;-70
2023/01/27 10:53:04;;;;;;;1.80;1.70;;;;;;;9.10;100.00;102897.25;10448335;28;20485;-70
2023/01/27 10:58:44;;;;;;;2.08;1.70;;;;;;;8.99;100.00;102898.22;10432577;28;20032;-69
2023/01/27 11:04:01;;;;;;;1.45;1.35;;;;;;;9.54;100.00;102882.38;10429239;28;20033;-70
2023/01/27 11:09:13;;;;;;;1.83;1.73;;;;;;;9.50;100.00;102880.91;10447068;28;20386;-69
2023/01/27 11:14:36;;;;;;;5.68;1.92;;;;;;;9.46;100.00;102882.22;10452492;28;20088;-69
2023/01/27 11:19:41;;;;;;;6.10;1.55;;;;;;;9.39;100.00;102880.22;10423940;28;20044;-70
2023/01/27 11:25:06;;;;;;;1.42;1.23;;;;;;;9.16;96.44;102879.63;10437622;28;20033;-69
2023/01/27 11:30:16;;;;;;;1.23;1.23;;;;;;;9.60;100.00;102880.91;10421286;28;20119;-70
2023/01/27 11:35:16;;;;;;;1.73;1.63;;;;;;;9.40;94.81;102871.09;10437136;28;20029;-69
2023/01/27 11:40:18;;;;;;;1.38;0.95;;;;;;;9.24;93.61;102864.41;10423118;28;20076;-69
2023/01/27 11:45:19;;;;;;;11.13;1.38;;;;;;;8.33;100.00;102868.09;10367872;28;20045;-69
2023/01/27 11:50:20;;;;;;;1.42;1.40;;;;;;;8.37;100.00;102861.44;10453868;28;20040;-69
2023/01/27 11:55:25;;;;;;;1.40;1.13;;;;;;;8.14;93.33;102860.75;10437639;28;20425;-69
2023/01/27 12:00:30;;;;;;;1.30;1.25;;;;;;;7.42;100.00;102853.41;10436883;28;20171;-69
2023/01/27 12:05:33;;;;;;;1.23;1.10;;;;;;;7.10;100.00;102854.25;10436040;28;20038;-69
2023/01/27 12:10:35;;;;;;;1.10;1.10;;;;;;;6.61;100.00;102849.34;10436630;28;20029;-69
2023/01/27 12:15:35;;;;;;;1.27;1.00;;;;;;;6.41;100.00;102849.06;10421335;28;20061;-69
2023/01/27 12:20:49;;;;;;;1.23;1.13;;;;;;;6.46;100.00;102860.34;10436376;28;20140;-69
2023/01/27 12:26:00;;;;;;;14.38;1.27;;;;;;;5.82;100.00;102843.84;10434168;28;20025;-69
2023/01/27 12:31:27;;;;;;;1.58;1.48;;;;;;;6.05;100.00;102850.16;10420639;28;20033;-69
2023/01/27 12:36:27;;;;;;;1.33;1.23;;;;;;;5.94;100.00;102840.25;10421132;28;20024;-69
2023/01/27 12:41:29;;;;;;;2.25;2.05;;;;;;;5.90;100.00;102835.19;10435568;28;20037;-69
2023/01/27 12:46:31;;;;;;;1.63;1.52;;;;;;;5.90;100.00;102835.19;10420402;28;20477;-69
2023/01/27 12:51:49;;;;;;;1.60;1.50;;;;;;;5.71;100.00;102835.75;10419801;28;20033;-69
2023/01/27 12:56:51;;;;;;;0.80;0.80;;;;;;;5.42;100.00;102833.47;10450445;28;20035;-69
2023/01/27 13:02:15;;;;;;;1.38;1.33;;;;;;;5.45;100.00;102832.38;10435360;28;20079;-69
2023/01/27 13:07:16;;;;;;;3.55;1.30;;;;;;;5.54;100.00;102834.38;10419442;28;20466;-69
2023/01/27 13:12:30;;;;;;;1.10;1.10;;;;;;;5.54;100.00;102831.69;10434865;28;20029;-69
2023/01/27 13:17:36;;;;;;;0.95;0.95;;;;;;;5.46;100.00;102834.09;10434256;28;20500;-69
2023/01/27 13:22:43;;;;;;;0.80;0.80;;;;;;;5.42;100.00;102816.47;10418513;28;20025;-69
2023/01/27 13:27:43;;;;;;;4.15;1.73;;;;;;;5.39;100.00;102830.16;10432980;28;20155;-69
2023/01/27 13:32:44;;;;;;;1.10;1.10;;;;;;;5.26;100.00;102824.84;10434277;28;20124;-69
2023/01/27 13:38:09;;;;;;;1.63;1.52;;;;;;;5.01;100.00;102842.81;10433026;28;20124;-68
2023/01/27 13:43:26;;;;;;;1.50;1.40;;;;;;;4.90;100.00;102846.25;10417124;28;20029;-68
2023/01/27 13:48:37;;;;;;;2.20;1.38;;;;;;;4.92;100.00;102842.63;10449937;28;20124;-69
2023/01/27 13:53:38;;;;;;;1.45;1.38;;;;;;;4.99;100.00;102849.25;10432440;28;20034;-68
2023/01/27 13:59:18;;;;;;;5.88;1.42;;;;;;;5.02;100.00;102843.66;10433799;28;20033;-69
2023/01/27 14:04:25;;;;;;;1.80;1.70;;;;;;;5.09;100.00;102853.81;10418192;28;20112;-69
2023/01/27 14:09:37;;;;;;;13.35;1.70;;;;;;;5.08;100.00;102846.75;10417460;28;20069;-69
2023/01/27 14:14:50;;;;;;;5.43;1.75;;;;;;;5.02;100.00;102849.88;10416560;28;20144;-69
2023/01/27 14:19:59;;;;;;;3.80;1.48;;;;;;;4.85;100.00;102850.25;10416031;28;20033;-68
2023/01/27 14:25:07;;;;;;;2.17;1.92;;;;;;;4.87;100.00;102859.06;10432354;28;20059;-68
2023/01/27 14:30:28;;;;;;;7.40;2.30;;;;;;;4.85;100.00;102855.63;10431302;28;20033;-69
2023/01/27 14:36:01;;;;;;;2.08;1.95;;;;;;;4.86;100.00;102860.88;10431364;28;20108;-69
2023/01/27 14:41:11;;;;;;;1.40;1.30;;;;;;;4.81;100.00;102865.72;10415789;28;20403;-69
2023/01/27 14:46:48;;;;;;;1.85;1.60;;;;;;;4.76;100.00;102851.81;10431004;28;20124;-68
2023/01/27 14:51:51;;;;;;;1.08;1.08;;;;;;;4.72;100.00;102874.44;10415675;28;20037;-68
2023/01/27 14:57:07;;;;;;;1.48;1.30;;;;;;;4.55;100.00;102877.50;10431582;28;20125;-69
2023/01/27 15:02:47;;;;;;;1.30;1.30;;;;;;;4.57;100.00;102888.97;10416230;28;20033;-68
2023/01/27 15:07:57;;;;;;;1.95;1.85;;;;;;;4.48;100.00;102881.59;10429971;28;20052;-69
2023/01/27 15:13:03;;;;;;;1.55;1.45;;;;;;;4.31;100.00;102886.31;10446588;28;20056;-69
2023/01/27 15:18:10;;;;;;;2.50;1.92;;;;;;;4.28;100.00;102897.25;10414862;28;20393;-69
2023/01/27 15:23:38;;;;;;;1.85;1.65;;;;;;;4.27;100.00;102898.22;10415387;28;20051;-68
2023/01/27 15:28:40;;;;;;;2.70;1.98;;;;;;;4.28;100.00;102902.63;10416718;28;20037;-69
2023/01/27 15:33:47;;;;;;;1.65;1.55;;;;;;;4.27;100.00;102911.63;10430667;28;20458;-69
2023/01/27 15:39:10;;;;;;;2.40;2.20;;;;;;;4.11;100.00;102909.13;10414042;28;20025;-69
2023/01/27 15:44:15;;;;;;;2.53;2.33;;;;;;;4.03;100.00;102914.19;10443790;28;20032;-69
2023/01/27 15:49:21;;;;;;;6.67;1.67;;;;;;;3.93;100.00;102905.91;10414530;28;20030;-69
2023/01/27 15:54:28;;;;;;;3.70;2.03;;;;;;;3.77;100.00;102905.25;10413272;28;20373;-69
2023/01/27 15:59:44;;;;;;;1.92;1.83;;;;;;;3.71;100.00;102906.50;10417960;28;20041;-69
2023/01/27 16:04:52;;;;;;;2.78;2.42;;;;;;;3.76;100.00;102908.88;10421673;28;20029;-69
2023/01/27 16:09:53;;;;;;;3.50;2.10;;;;;;;3.79;100.00;102916.69;10438240;28;20032;-69
2023/01/27 16:14:59;;;;;;;6.20;2.28;;;;;;;3.95;100.00;102921.88;10453570;28;20058;-69
2023/01/27 16:20:14;;;;;;;2.40;2.30;;;;;;;3.92;100.00;102927.44;10421726;28;20033;-68
2023/01/27 16:25:28;;;;;;;4.63;2.88;;;;;;;3.99;100.00;102927.88;10422300;28;20112;-69
2023/01/27 16:30:30;;;;;;;4.47;3.13;;;;;;;3.99;100.00;102927.88;10419577;28;20036;-69
2023/01/27 16:36:06;;;;;;;2.92;2.65;;;;;;;3.91;100.00;102942.69;10418751;28;20030;-69
2023/01/27 16:41:23;;;;;;;5.50;3.47;;;;;;;3.95;100.00;102944.19;10420152;28;20041;-69
2023/01/27 16:46:32;;;;;;;3.67;2.92;;;;;;;3.97;100.00;102947.63;10420204;28;20033;-69
2023/01/27 16:51:33;;;;;;;5.78;2.50;;;;;;;3.94;100.00;102953.19;10450253;28;20034;-69
2023/01/27 16:56:34;;;;;;;5.32;3.38;;;;;;;3.87;100.00;102946.53;10421468;28;20099;-69
2023/01/27 17:01:47;;;;;;;11.43;4.45;;;;;;;3.91;100.00;102953.41;10451792;28;20515;-69
2023/01/27 17:06:48;;;;;;;6.88;3.05;;;;;;;3.95;100.00;102954.06;10450958;28;20040;-69
2023/01/27 17:11:48;;;;;;;3.17;2.65;;;;;;;3.90;100.00;102957.06;10434431;28;20071;-69
2023/01/27 17:16:50;;;;;;;3.25;2.95;;;;;;;3.93;100.00;102966.72;10434986;28;20111;-69
2023/01/27 17:21:51;;;;;;;3.38;3.15;;;;;;;3.90;100.00;102967.78;10417941;28;20052;-69
2023/01/27 17:27:00;;;;;;;3.03;2.83;;;;;;;3.73;100.00;102971.59;10450592;28;20116;-69
2023/01/27 17:32:00;;;;;;;3.70;2.90;;;;;;;3.83;100.00;102976.31;10418300;28;20033;-69
2023/01/27 17:37:14;;;;;;;3.40;3.10;;;;;;;3.86;100.00;102982.34;10417918;28;20136;-69
2023/01/27 17:42:15;;;;;;;6.72;3.53;;;;;;;3.90;100.00;102983.00;10417929;28;20034;-69
2023/01/27 17:47:17;;;;;;;3.95;3.03;;;;;;;3.85;100.00;102995.84;10433139;28;20114;-69
2023/01/27 17:52:20;;;;;;;8.27;4.47;;;;;;;3.88;100.00;102998.31;10415616;28;20033;-69
2023/01/27 17:57:21;;;;;;;9.98;3.83;;;;;;;3.89;100.00;103006.28;10433469;28;20116;-69
2023/01/27 18:02:25;;;;;;;4.05;3.38;;;;;;;3.91;100.00;103001.66;10448777;28;20042;-69
2023/01/27 18:07:27;;;;;;;3.90;3.50;;;;;;;3.91;100.00;103009.69;10448846;28;20358;-69
2023/01/27 18:12:36;;;;;;;4.22;3.45;;;;;;;3.95;100.00;103015.69;10415197;28;20037;-69
2023/01/27 18:17:37;;;;;;;6.05;4.22;;;;;;;3.92;100.00;103030.19;10417408;28;20116;-69
2023/01/27 18:22:42;;;;;;;6.15;3.92;;;;;;;3.94;100.00;103022.03;10415065;28;20033;-68
2023/01/27 18:27:42;;;;;;;4.53;3.97;;;;;;;3.84;100.00;103031.66;10416982;28;20033;-69
2023/01/27 18:32:44;;;;;;;3.83;3.53;;;;;;;3.87;100.00;103021.59;10415534;28;20037;-69
2023/01/27 18:37:56;;;;;;;3.70;3.47;;;;;;;3.96;100.00;103030.84;10447381;28;20055;-69
2023/01/27 18:42:57;;;;;;;3.47;3.22;;;;;;;3.92;100.00;103031.97;10446411;28;20042;-69
2023/01/27 18:47:58;;;;;;;5.03;4.20;;;;;;;3.93;100.00;103047.97;10414165;28;20025;-69
2023/01/27 18:52:59;;;;;;;4.55;3.63;;;;;;;3.87;100.00;103053.75;10415527;28;20488;-69
2023/01/27 18:57:59;;;;;;;3.85;3.55;;;;;;;3.88;100.00;103055.47;10415723;28;20083;-69
2023/01/27 19:03:00;;;;;;;5.60;3.58;;;;;;;3.78;100.00;103051.66;10414916;28;20048;-69
2023/01/27 19:08:01;;;;;;;4.60;4.25;;;;;;;3.74;100.00;103055.50;10447473;28;20413;-69
2023/01/27 19:13:01;;;;;;;5.22;3.60;;;;;;;3.72;100.00;103060.97;10447283;28;20033;-69
2023/01/27 19:18:08;;;;;;;4.45;3.78;;;;;;;3.44;100.00;103061.00;10416533;28;20064;-69
2023/01/27 19:23:10;;;;;;;;;;;;;;;3.42;100.00;103065.63;10429956;28;20466;-68
2023/01/27 19:28:14;;;;;;;4.65;4.15;;;;;;;3.41;100.00;103063.88;10431626;28;19928;-68
2023/01/27 19:33:22;;;;;;;5.22;4.75;;;;;;;3.36;100.00;103061.50;10416273;28;20025;-68
2023/01/27 19:38:27;;;;;;;7.00;6.18;;;;;;;3.50;100.00;103061.47;10438494;28;20107;-69
2023/01/27 19:43:27;;;;;;;5.43;4.93;;;;;;;3.58;100.00;103060.16;10454460;28;20033;-69
2023/01/27 19:48:28;;;;;;;6.55;5.60;;;;;;;3.52;100.00;103060.53;10454259;28;20478;-69
2023/01/27 19:53:28;;;;;;;5.97;5.45;;;;;;;3.36;100.00;103060.66;10403962;28;20385;-69
2023/01/27 19:58:29;;;;;;;8.20;4.95;;;;;;;3.29;100.00;103054.84;10421248;28;20065;-68
2023/01/27 20:03:29;;;;;;;10.25;5.70;;;;;;;3.35;100.00;103048.19;10421181;28;20449;-69
2023/01/27 20:08:30;;;;;;;6.38;5.78;;;;;;;3.37;100.00;103055.19;10421599;28;20466;-69
2023/01/27 20:13:30;;;;;;;7.30;6.50;;;;;;;3.26;100.00;103063.91;10422470;28;20120;-69
2023/01/27 20:18:31;;;;;;;9.95;6.65;;;;;;;3.30;100.00;103059.22;10403710;28;20061;-69
2023/01/27 20:23:31;;;;;;;7.13;6.43;;;;;;;3.22;100.00;103061.50;10421477;28;20128;-69
2023/01/27 20:28:34;;;;;;;7.22;6.53;;;;;;;3.21;100.00;103063.31;10421657;28;20069;-69
2023/01/27 20:33:35;;;;;;;8.45;7.75;;;;;;;3.27;100.00;103056.75;10419699;28;20359;-69
2023/01/27 20:38:35;;;;;;;7.22;6.45;;;;;;;3.26;100.00;103057.69;10452058;28;20037;-69
2023/01/27 20:43:36;;;;;;;7.10;6.40;;;;;;;3.24;100.00;103054.25;10420188;28;20116;-69
2023/01/27 20:48:36;;;;;;;7.43;6.43;;;;;;;3.10;100.00;103057.81;10435179;28;20371;-69
2023/01/27 20:53:42;;;;;;;8.82;7.93;;;;;;;3.18;100.00;103060.84;10419560;28;20033;-69
2023/01/27 20:58:42;;;;;;;12.30;8.65;;;;;;;3.25;100.00;103062.19;10419672;28;20025;-69
2023/01/27 21:03:43;;;;;;;9.73;8.05;;;;;;;3.28;100.00;103049.56;10451868;28;20026;-69
2023/01/27 21:08:43;;;;;;;8.40;7.60;;;;;;;3.30;100.00;103048.50;10435430;28;20060;-68
2023/01/27 21:13:44;;;;;;;9.25;8.38;;;;;;;3.26;100.00;103063.06;10418669;28;20033;-68
2023/01/27 21:18:44;;;;;;;10.00;8.02;;;;;;;3.26;100.00;103060.38;10377433;28;20430;-68
2023/01/27 21:23:45;;;;;;;13.52;7.88;;;;;;;3.26;100.00;103063.06;10409026;28;20455;-69
2023/01/27 21:28:45;;;;;;;8.90;8.02;;;;;;;3.25;100.00;103054.16;10376222;28;20536;-69
2023/01/27 21:33:47;;;;;;;11.10;9.98;;;;;;;3.22;100.00;103054.38;10393611;28;20057;-68
2023/01/27 21:38:52;;;;;;;8.90;8.00;;;;;;;3.21;100.00;103043.72;10376676;28;20048;-69
2023/01/27 21:49:11;;;;;;;11.20;8.25;;;;;;;3.25;100.00;103045.25;10375286;28;20046;-69
2023/01/27 21:54:12;;;;;;;8.88;7.97;;;;;;;3.24;100.00;103038.19;10377147;28;20525;-69
2023/01/27 21:59:12;;;;;;;9.65;8.45;;;;;;;3.24;100.00;103033.69;10374753;28;20125;-69
2023/01/27 22:04:13;;;;;;;10.13;8.25;;;;;;;3.21;100.00;103033.88;10377260;28;20034;-69
2023/01/27 22:09:13;;;;;;;11.65;9.18;;;;;;;3.23;100.00;103036.47;10376698;28;20037;-69
2023/01/27 22:14:14;;;;;;;15.50;10.77;;;;;;;3.25;100.00;103038.09;10379003;28;20127;-69
2023/01/27 22:19:14;;;;;;;13.52;10.13;;;;;;;3.24;100.00;103035.50;10416441;28;20117;-69
2023/01/27 22:24:15;;;;;;;13.82;11.13;;;;;;;3.02;100.00;103038.66;10415867;28;20064;-69
2023/01/27 22:29:15;;;;;;;13.30;9.43;;;;;;;2.99;100.00;103034.38;10416276;28;20099;-69
2023/01/27 22:34:15;;;;;;;9.07;8.15;;;;;;;2.78;100.00;103015.16;10416460;28;20033;-69
2023/01/27 22:39:16;;;;;;;10.30;8.75;;;;;;;2.91;100.00;103020.63;10398727;28;20026;-69
2023/01/27 22:44:17;;;;;;;12.40;9.73;;;;;;;3.01;100.00;103021.75;10448466;28;20048;-69
2023/01/27 22:49:17;;;;;;;8.70;7.80;;;;;;;3.07;100.00;103025.88;10415158;28;20393;-69
2023/01/27 22:54:18;;;;;;;12.77;9.75;;;;;;;3.09;100.00;103029.28;10415632;28;20037;-70
2023/01/27 22:59:18;;;;;;;13.85;9.75;;;;;;;3.09;100.00;103023.94;10416253;28;20381;-71
2023/01/27 23:04:18;;;;;;;10.20;9.20;;;;;;;3.12;100.00;103033.59;10448763;28;20044;-69
2023/01/27 23:09:19;;;;;;;10.82;8.50;;;;;;;3.10;100.00;103032.84;10340059;28;20054;-70
2023/01/27 23:14:19;;;;;;;14.85;9.07;;;;;;;3.10;100.00;103025.69;10382097;28;20486;-69
2023/01/27 23:19:20;;;;;;;10.98;9.30;;;;;;;3.12;100.00;103025.56;10364779;28;20053;-69
2023/01/27 23:24:21;;;;;;;16.88;9.57;;;;;;;3.07;100.00;103033.06;10382569;28;20136;-69
2023/01/27 23:29:22;;;;;;;13.05;9.30;;;;;;;3.10;100.00;103032.84;10382352;28;20068;-69
2023/01/27 23:34:22;;;;;;;13.55;10.10;;;;;;;3.07;100.00;103031.22;10382707;28;20030;-69
2023/01/27 23:39:23;;;;;;;14.90;9.23;;;;;;;3.08;100.00;103043.66;10364403;28;20132;-69
2023/01/27 23:44:23;;;;;;;10.45;8.48;;;;;;;3.08;100.00;103043.66;10381065;28;20053;-69
2023/01/27 23:49:23;;;;;;;12.38;10.25;;;;;;;3.10;100.00;103041.75;10381519;28;20040;-69